createdAt,value
2019-03-27T00:02:24.255Z,70.60
2019-03-27T00:04:52.920Z,70.40
2019-03-27T00:07:21.547Z,70.70
2019-03-27T00:09:50.213Z,70.80
2019-03-27T00:12:18.832Z,70.90
2019-03-27T00:14:47.434Z,71.00
2019-03-27T00:17:16.189Z,71.50
2019-03-27T00:19:44.852Z,71.80
2019-03-27T00:22:13.480Z,71.70
2019-03-27T00:24:42.166Z,71.60
2019-03-27T00:27:10.854Z,71.70
2019-03-27T00:29:39.448Z,72.00
2019-03-27T00:32:08.102Z,71.90
2019-03-27T00:34:36.726Z,71.90
2019-03-27T00:37:05.310Z,72.00
2019-03-27T00:39:33.927Z,72.00
2019-03-27T00:42:02.543Z,72.90
2019-03-27T00:44:31.208Z,72.40
2019-03-27T00:46:59.860Z,72.40
2019-03-27T00:49:28.483Z,72.40
2019-03-27T00:51:57.151Z,72.40
2019-03-27T00:54:25.847Z,72.30
2019-03-27T00:56:54.519Z,72.50
2019-03-27T00:59:23.207Z,72.60
2019-03-27T01:01:51.874Z,72.40
2019-03-27T01:04:20.492Z,72.30
2019-03-27T01:06:50.958Z,72.50
2019-03-27T01:09:19.731Z,72.90
2019-03-27T01:11:48.388Z,72.90
2019-03-27T01:14:17.018Z,73.40
2019-03-27T01:16:45.669Z,73.40
2019-03-27T01:19:14.358Z,73.00
2019-03-27T01:21:42.958Z,73.10
2019-03-27T01:24:11.643Z,73.10
2019-03-27T01:26:40.242Z,73.00
2019-03-27T01:29:08.950Z,72.80
2019-03-27T01:31:40.453Z,72.90
2019-03-27T01:34:09.443Z,72.80
2019-03-27T01:36:38.107Z,72.70
2019-03-27T01:39:06.721Z,72.90
2019-03-27T01:41:35.326Z,73.00
2019-03-27T01:44:04.007Z,73.40
2019-03-27T01:46:32.612Z,73.70
2019-03-27T01:49:01.307Z,74.10
2019-03-27T01:51:29.907Z,74.30
2019-03-27T01:53:58.602Z,74.40
2019-03-27T01:56:27.281Z,74.60
2019-03-27T01:58:55.891Z,75.10
2019-03-27T02:01:24.536Z,75.20
2019-03-27T02:03:53.229Z,75.20
2019-03-27T02:06:21.893Z,75.10
2019-03-27T02:08:50.497Z,75.10
2019-03-27T02:11:19.208Z,75.20
2019-03-27T02:13:47.872Z,74.90
2019-03-27T02:16:16.559Z,75.10
2019-03-27T02:18:45.235Z,74.80
2019-03-27T02:21:13.919Z,74.60
2019-03-27T02:23:42.571Z,74.70
2019-03-27T02:26:11.187Z,75.00
2019-03-27T02:28:39.875Z,74.80
2019-03-27T02:31:08.556Z,74.80
2019-03-27T02:33:37.230Z,74.80
2019-03-27T02:36:05.921Z,74.70
2019-03-27T02:38:34.587Z,74.50
2019-03-27T02:41:03.365Z,75.10
2019-03-27T02:43:32.015Z,74.80
2019-03-27T02:46:00.716Z,74.70
2019-03-27T02:48:29.403Z,74.40
2019-03-27T02:50:58.083Z,74.70
2019-03-27T02:53:26.747Z,74.60
2019-03-27T02:55:55.374Z,74.70
2019-03-27T02:58:24.036Z,74.80
2019-03-27T03:00:52.749Z,74.80
2019-03-27T03:03:21.354Z,74.50
2019-03-27T03:05:50.039Z,74.70
2019-03-27T03:08:18.716Z,74.80
2019-03-27T03:10:47.400Z,74.80
2019-03-27T03:13:16.072Z,74.80
2019-03-27T03:15:44.708Z,75.20
2019-03-27T03:18:13.304Z,75.10
2019-03-27T03:20:42.014Z,75.30
2019-03-27T03:23:10.714Z,75.10
2019-03-27T03:25:39.409Z,75.10
2019-03-27T03:28:08.062Z,75.00
2019-03-27T03:30:36.700Z,74.80
2019-03-27T03:33:05.372Z,75.10
2019-03-27T03:35:34.087Z,75.30
2019-03-27T03:38:02.751Z,75.30
2019-03-27T03:40:31.370Z,75.30
2019-03-27T03:43:00.069Z,75.10
2019-03-27T03:45:28.747Z,74.80
2019-03-27T03:47:57.455Z,75.00
2019-03-27T03:50:39.690Z,74.80
2019-03-27T03:53:10.242Z,74.80
2019-03-27T03:55:39.336Z,74.70
2019-03-27T03:58:12.010Z,74.50
2019-03-27T04:00:41.072Z,74.80
2019-03-27T04:03:09.816Z,74.80
2019-03-27T04:05:38.517Z,74.80
2019-03-27T04:08:07.184Z,74.70
2019-03-27T04:10:35.870Z,74.50
2019-03-27T04:13:04.613Z,74.80
2019-03-27T04:15:33.270Z,74.80
2019-03-27T04:18:01.975Z,74.80
2019-03-27T04:20:30.648Z,74.70
2019-03-27T04:22:59.262Z,74.50
2019-03-27T04:25:27.939Z,74.10
2019-03-27T04:27:56.625Z,74.10
2019-03-27T04:30:25.312Z,74.40
2019-03-27T04:32:53.900Z,74.10
2019-03-27T04:35:22.601Z,74.20
2019-03-27T04:37:51.268Z,74.30
2019-03-27T04:40:19.964Z,74.00
2019-03-27T04:42:48.658Z,73.80
2019-03-27T04:45:17.406Z,73.80
2019-03-27T04:47:46.100Z,74.10
2019-03-27T04:50:14.763Z,74.20
2019-03-27T04:52:43.452Z,74.10
2019-03-27T04:55:12.149Z,74.50
2019-03-27T04:57:40.830Z,74.50
2019-03-27T05:00:09.878Z,74.70
2019-03-27T05:02:37.532Z,74.50
2019-03-27T05:05:07.381Z,74.40
2019-03-27T05:07:36.384Z,74.50
2019-03-27T05:10:05.526Z,74.50
2019-03-27T05:12:34.504Z,74.50
2019-03-27T05:15:03.279Z,74.40
2019-03-27T05:17:44.729Z,74.00
2019-03-27T05:20:02.320Z,73.90
2019-03-27T05:22:30.977Z,73.70
2019-03-27T05:24:59.606Z,73.60
2019-03-27T05:27:28.200Z,73.70
2019-03-27T05:29:56.907Z,73.50
2019-03-27T05:32:25.568Z,73.80
2019-03-27T05:34:54.278Z,73.90
2019-03-27T05:37:22.948Z,73.90
2019-03-27T05:39:51.544Z,73.60
2019-03-27T05:42:20.265Z,73.50
2019-03-27T05:44:48.924Z,73.40
2019-03-27T05:47:17.557Z,73.50
2019-03-27T05:49:46.165Z,73.40
2019-03-27T05:52:14.875Z,73.50
2019-03-27T05:54:43.593Z,73.80
2019-03-27T05:57:12.265Z,73.60
2019-03-27T05:59:41.038Z,73.40
2019-03-27T06:02:09.714Z,73.00
2019-03-27T06:04:38.419Z,72.90
2019-03-27T06:07:07.036Z,72.90
2019-03-27T06:09:35.744Z,73.20
2019-03-27T06:12:04.416Z,73.20
2019-03-27T06:14:33.117Z,72.90
2019-03-27T06:17:01.822Z,72.90
2019-03-27T06:19:30.510Z,72.40
2019-03-27T06:21:59.209Z,72.60
2019-03-27T06:24:27.908Z,72.30
2019-03-27T06:26:56.528Z,72.00
2019-03-27T06:29:25.306Z,72.10
2019-03-27T06:31:53.918Z,72.00
2019-03-27T06:34:22.615Z,71.80
2019-03-27T06:36:53.632Z,72.00
2019-03-27T06:39:25.158Z,72.10
2019-03-27T06:41:54.083Z,71.80
2019-03-27T06:44:22.681Z,71.50
2019-03-27T06:46:51.322Z,71.70
2019-03-27T06:49:20.009Z,71.10
2019-03-27T06:51:48.706Z,70.90
2019-03-27T06:54:17.388Z,70.90
2019-03-27T06:56:46.064Z,71.00
2019-03-27T06:59:14.696Z,70.30
2019-03-27T07:01:43.378Z,71.20
2019-03-27T07:04:12.079Z,71.70
2019-03-27T07:06:40.779Z,71.40
2019-03-27T07:09:09.567Z,71.70
2019-03-27T07:11:38.267Z,71.60
2019-03-27T07:14:06.889Z,71.10
2019-03-27T07:16:35.577Z,70.30
2019-03-27T07:19:04.255Z,70.30
2019-03-27T07:21:32.918Z,70.70
2019-03-27T07:24:01.517Z,70.40
2019-03-27T07:26:30.245Z,70.60
2019-03-27T07:28:58.979Z,70.20
2019-03-27T07:31:27.652Z,71.00
2019-03-27T07:33:56.367Z,70.70
2019-03-27T07:36:25.029Z,70.40
2019-03-27T07:38:53.657Z,70.20
2019-03-27T07:41:22.349Z,70.20
2019-03-27T07:43:50.965Z,70.90
2019-03-27T07:46:19.659Z,70.30
2019-03-27T07:48:53.787Z,70.30
2019-03-27T07:51:19.000Z,70.40
2019-03-27T07:53:47.671Z,70.40
2019-03-27T07:56:16.343Z,69.80
2019-03-27T07:58:44.965Z,70.00
2019-03-27T08:01:13.656Z,70.20
2019-03-27T08:03:42.363Z,69.60
2019-03-27T08:06:10.977Z,69.40
2019-03-27T08:08:39.635Z,68.80
2019-03-27T08:11:08.312Z,68.50
2019-03-27T08:13:37.007Z,68.20
2019-03-27T08:16:05.713Z,68.00
2019-03-27T08:18:34.311Z,67.50
2019-03-27T08:21:02.973Z,67.10
2019-03-27T08:23:31.611Z,67.10
2019-03-27T08:26:00.236Z,66.50
2019-03-27T08:28:28.911Z,66.10
2019-03-27T08:30:57.527Z,65.40
2019-03-27T08:33:26.120Z,66.10
2019-03-27T08:35:54.751Z,65.80
2019-03-27T08:38:23.417Z,65.30
2019-03-27T08:40:52.101Z,64.20
2019-03-27T08:43:23.962Z,63.70
2019-03-27T08:45:51.335Z,65.00
2019-03-27T08:48:19.993Z,65.00
2019-03-27T08:50:48.682Z,64.90
2019-03-27T08:53:17.291Z,65.20
2019-03-27T08:55:45.987Z,64.00
2019-03-27T08:58:14.668Z,63.80
2019-03-27T09:00:47.305Z,63.20
2019-03-27T09:03:16.336Z,63.50
2019-03-27T09:05:44.943Z,63.20
2019-03-27T09:08:13.957Z,63.20
2019-03-27T09:10:41.652Z,62.80
2019-03-27T09:13:09.995Z,62.40
2019-03-27T09:15:38.675Z,62.60
2019-03-27T09:18:07.367Z,62.50
2019-03-27T09:20:35.971Z,62.40
2019-03-27T09:23:04.671Z,62.30
2019-03-27T09:25:33.282Z,61.70
2019-03-27T09:28:01.977Z,61.60
2019-03-27T09:30:30.572Z,62.20
2019-03-27T09:32:59.192Z,62.20
2019-03-27T09:35:27.811Z,62.70
2019-03-27T09:37:56.562Z,63.10
2019-03-27T09:40:25.208Z,62.90
2019-03-27T09:42:53.910Z,62.30
2019-03-27T09:45:22.580Z,62.40
2019-03-27T09:47:51.220Z,62.10
2019-03-27T09:50:19.902Z,62.30
2019-03-27T09:52:48.600Z,62.50
2019-03-27T09:55:17.273Z,62.40
2019-03-27T09:57:45.979Z,62.60
2019-03-27T10:00:14.670Z,62.60
2019-03-27T10:02:43.301Z,63.00
2019-03-27T10:05:11.979Z,62.60
2019-03-27T10:07:40.659Z,62.60
2019-03-27T10:10:09.346Z,62.50
2019-03-27T10:12:38.092Z,62.00
2019-03-27T10:15:07.584Z,61.60
2019-03-27T10:17:36.562Z,61.40
2019-03-27T10:20:05.421Z,61.40
2019-03-27T10:22:34.016Z,61.40
2019-03-27T10:25:02.786Z,60.70
2019-03-27T10:27:31.464Z,60.80
2019-03-27T10:30:00.379Z,60.40
2019-03-27T10:32:28.749Z,60.00
2019-03-27T10:34:57.443Z,60.90
2019-03-27T10:37:26.044Z,61.20
2019-03-27T10:39:54.655Z,61.60
2019-03-27T10:42:23.337Z,62.50
2019-03-27T10:44:51.956Z,62.70
2019-03-27T10:47:20.571Z,63.20
2019-03-27T10:49:49.264Z,63.90
2019-03-27T10:52:17.938Z,65.40
2019-03-27T10:54:46.580Z,66.40
2019-03-27T10:57:15.179Z,66.80
2019-03-27T10:59:43.834Z,66.20
2019-03-27T11:02:12.518Z,66.60
2019-03-27T11:04:41.272Z,66.80
2019-03-27T11:07:09.961Z,66.60
2019-03-27T11:09:38.614Z,67.50
2019-03-27T11:12:07.300Z,67.70
2019-03-27T11:14:38.247Z,68.40
2019-03-27T11:17:06.669Z,68.80
2019-03-27T11:19:35.272Z,70.20
2019-03-27T11:22:03.911Z,70.20
2019-03-27T11:24:32.515Z,70.30
2019-03-27T11:27:01.248Z,71.90
2019-03-27T11:29:29.700Z,70.40
2019-03-27T11:31:58.380Z,71.80
2019-03-27T11:34:26.985Z,71.50
2019-03-27T11:36:55.607Z,72.00
2019-03-27T11:39:24.837Z,72.90
2019-03-27T11:41:53.862Z,72.80
2019-03-27T11:44:22.477Z,72.60
2019-03-27T11:46:51.146Z,73.20
2019-03-27T11:49:19.855Z,74.70
2019-03-27T11:51:48.529Z,74.40
2019-03-27T11:54:17.199Z,74.20
2019-03-27T11:56:45.879Z,74.00
2019-03-27T11:59:14.552Z,73.30
2019-03-27T12:01:43.875Z,73.20
2019-03-27T12:04:12.904Z,73.70
2019-03-27T12:06:41.579Z,73.70
2019-03-27T12:09:10.176Z,73.60
2019-03-27T12:11:38.845Z,73.30
2019-03-27T12:14:07.527Z,74.40
2019-03-27T12:16:36.196Z,74.60
2019-03-27T12:19:04.955Z,75.50
2019-03-27T12:21:33.626Z,75.10
2019-03-27T12:24:02.297Z,75.90
2019-03-27T12:26:30.989Z,75.60
2019-03-27T12:28:59.674Z,75.90
2019-03-27T12:31:28.442Z,75.90
2019-03-27T12:33:57.117Z,76.60
2019-03-27T12:36:25.744Z,75.80
2019-03-27T12:38:54.413Z,77.10
2019-03-27T12:41:23.093Z,77.50
2019-03-27T12:43:51.783Z,76.30
2019-03-27T12:46:20.460Z,76.70
2019-03-27T12:48:49.165Z,76.40
2019-03-27T12:51:17.772Z,76.70
2019-03-27T12:53:46.430Z,76.50
2019-03-27T12:56:15.105Z,76.20
2019-03-27T12:58:43.774Z,76.70
2019-03-27T13:01:12.465Z,76.60
2019-03-27T13:03:44.195Z,78.10
2019-03-27T13:06:11.742Z,78.40
2019-03-27T13:08:40.418Z,78.70
2019-03-27T13:11:09.071Z,78.00
2019-03-27T13:13:37.674Z,79.10
2019-03-27T13:16:06.341Z,79.60
2019-03-27T13:18:35.028Z,79.30
2019-03-27T13:21:03.715Z,79.50
2019-03-27T13:23:32.371Z,79.60
2019-03-27T13:26:00.982Z,79.80
2019-03-27T13:28:29.650Z,80.00
2019-03-27T13:30:58.351Z,80.70
2019-03-27T13:33:27.012Z,80.30
2019-03-27T13:35:55.664Z,80.10
2019-03-27T13:38:24.271Z,80.10
2019-03-27T13:40:52.933Z,80.40
2019-03-27T13:43:21.627Z,80.90
2019-03-27T13:45:50.387Z,80.70
2019-03-27T13:48:18.974Z,81.30
2019-03-27T13:50:47.661Z,81.00
2019-03-27T13:53:16.325Z,81.50
2019-03-27T13:55:45.020Z,80.60
2019-03-27T13:58:13.684Z,81.30
2019-03-27T14:00:42.377Z,81.40
2019-03-27T14:03:11.050Z,81.30
2019-03-27T14:05:39.715Z,81.20
2019-03-27T14:08:08.377Z,81.40
2019-03-27T14:10:37.036Z,81.40
2019-03-27T14:13:05.724Z,81.50
2019-03-27T14:15:34.403Z,81.50
2019-03-27T14:18:03.093Z,81.50
2019-03-27T14:20:31.682Z,80.70
2019-03-27T14:23:00.807Z,81.50
2019-03-27T14:25:29.741Z,81.50
2019-03-27T14:27:58.480Z,81.50
2019-03-27T14:30:46.814Z,81.50
2019-03-27T14:33:15.484Z,81.50
2019-03-27T14:35:44.160Z,82.40
2019-03-27T14:38:12.867Z,83.00
2019-03-27T14:40:41.454Z,82.90
2019-03-27T14:43:10.044Z,82.50
2019-03-27T14:45:38.648Z,82.20
2019-03-27T14:48:07.314Z,81.50
2019-03-27T14:50:36.012Z,82.50
2019-03-27T14:53:04.604Z,82.80
2019-03-27T14:55:33.230Z,83.00
2019-03-27T14:58:01.811Z,83.10
2019-03-27T15:00:30.402Z,83.40
2019-03-27T15:02:58.993Z,83.50
2019-03-27T15:05:27.575Z,83.40
2019-03-27T15:07:56.202Z,83.70
2019-03-27T15:10:24.857Z,84.10
2019-03-27T15:12:53.466Z,83.50
2019-03-27T15:15:22.131Z,83.60
2019-03-27T15:17:50.723Z,83.80
2019-03-27T15:20:19.407Z,83.50
2019-03-27T15:22:47.976Z,84.20
2019-03-27T15:25:16.591Z,84.00
2019-03-27T15:27:45.198Z,84.00
2019-03-27T15:30:13.859Z,83.10
2019-03-27T15:32:42.607Z,84.10
2019-03-27T15:35:11.260Z,84.50
2019-03-27T15:37:39.930Z,83.90
2019-03-27T15:40:08.596Z,83.90
2019-03-27T15:42:37.489Z,83.50
2019-03-27T15:45:09.456Z,84.30
2019-03-27T15:47:38.361Z,85.20
2019-03-27T15:50:07.049Z,85.10
2019-03-27T15:52:37.116Z,85.20
2019-03-27T15:55:06.776Z,85.50
2019-03-27T15:57:35.727Z,86.30
2019-03-27T16:00:05.343Z,85.90
2019-03-27T16:02:34.231Z,85.60
2019-03-27T16:05:02.930Z,85.60
2019-03-27T16:07:31.604Z,86.00
2019-03-27T16:10:00.478Z,86.20
2019-03-27T16:12:28.871Z,86.30
2019-03-27T16:14:57.474Z,86.00
2019-03-27T16:17:26.143Z,86.00
2019-03-27T16:19:54.855Z,85.70
2019-03-27T16:22:23.522Z,85.50
2019-03-27T16:24:52.216Z,86.40
2019-03-27T16:27:20.898Z,85.80
2019-03-27T16:29:49.557Z,85.20
2019-03-27T16:32:18.177Z,86.00
2019-03-27T16:34:46.789Z,86.00
2019-03-27T16:37:15.490Z,85.10
2019-03-27T16:39:44.171Z,85.10
2019-03-27T16:42:12.871Z,85.10
2019-03-27T16:44:41.554Z,84.70
2019-03-27T16:47:10.269Z,84.60
2019-03-27T16:49:38.941Z,85.10
2019-03-27T16:52:07.549Z,84.80
2019-03-27T16:54:36.263Z,84.90
2019-03-27T16:57:04.936Z,85.50
2019-03-27T16:59:33.555Z,85.60
2019-03-27T17:02:02.225Z,85.30
2019-03-27T17:04:30.940Z,85.70
2019-03-27T17:06:59.630Z,86.30
2019-03-27T17:09:28.331Z,86.50
2019-03-27T17:11:57.032Z,86.40
2019-03-27T17:14:25.648Z,86.30
2019-03-27T17:16:54.397Z,87.00
2019-03-27T17:19:23.053Z,87.20
2019-03-27T17:21:51.758Z,87.40
2019-03-27T17:24:20.427Z,87.30
2019-03-27T17:26:49.103Z,87.10
2019-03-27T17:29:17.815Z,87.60
2019-03-27T17:31:46.491Z,87.90
2019-03-27T17:34:15.202Z,87.90
2019-03-27T17:36:43.815Z,87.70
2019-03-27T17:39:12.501Z,87.70
2019-03-27T17:41:41.202Z,87.60
2019-03-27T17:44:09.888Z,87.50
2019-03-27T17:46:38.630Z,87.60
2019-03-27T17:49:07.291Z,87.60
2019-03-27T17:51:35.984Z,87.40
2019-03-27T17:54:04.683Z,87.90
2019-03-27T17:56:33.341Z,88.50
2019-03-27T17:59:02.053Z,88.60
2019-03-27T18:01:30.671Z,88.40
2019-03-27T18:03:59.397Z,88.70
2019-03-27T18:06:28.084Z,88.40
2019-03-27T18:08:56.755Z,88.90
2019-03-27T18:11:25.469Z,89.70
2019-03-27T18:13:54.143Z,88.70
2019-03-27T18:16:22.834Z,89.00
2019-03-27T18:18:51.425Z,89.20
2019-03-27T18:21:21.458Z,88.40
2019-03-27T18:23:50.461Z,88.90
2019-03-27T18:26:19.164Z,88.80
2019-03-27T18:28:47.807Z,89.00
2019-03-27T18:31:16.515Z,88.90
2019-03-27T18:33:45.337Z,88.90
2019-03-27T18:36:13.735Z,89.10
2019-03-27T18:38:45.620Z,89.00
2019-03-27T18:41:13.050Z,89.60
2019-03-27T18:43:41.723Z,89.60
2019-03-27T18:46:10.371Z,88.90
2019-03-27T18:48:39.059Z,88.50
2019-03-27T18:51:07.754Z,88.70
2019-03-27T18:53:36.439Z,88.90
2019-03-27T18:56:05.171Z,88.50
2019-03-27T18:58:33.846Z,88.90
2019-03-27T19:01:02.533Z,87.80
2019-03-27T19:03:31.211Z,87.40
2019-03-27T19:05:59.887Z,87.20
2019-03-27T19:08:28.580Z,87.00
2019-03-27T19:10:57.198Z,86.90
2019-03-27T19:13:25.826Z,86.40
2019-03-27T19:15:54.505Z,86.10
2019-03-27T19:18:23.146Z,86.00
2019-03-27T19:20:51.755Z,85.90
2019-03-27T19:23:20.427Z,85.80
2019-03-27T19:25:49.114Z,85.50
2019-03-27T19:28:17.802Z,85.10
2019-03-27T19:30:46.436Z,86.20
2019-03-27T19:33:15.120Z,86.40
2019-03-27T19:35:43.833Z,85.70
2019-03-27T19:38:12.544Z,85.90
2019-03-27T19:40:41.236Z,85.80
2019-03-27T19:43:09.926Z,85.50
2019-03-27T19:45:38.602Z,84.90
2019-03-27T19:48:07.279Z,85.10
2019-03-27T19:50:35.937Z,85.10
2019-03-27T19:53:04.701Z,85.10
2019-03-27T19:55:33.414Z,84.90
2019-03-27T19:58:02.103Z,85.30
2019-03-27T20:00:30.804Z,84.40
2019-03-27T20:02:59.498Z,85.20
2019-03-27T20:05:28.121Z,85.80
2019-03-27T20:07:56.812Z,85.40
2019-03-27T20:10:25.510Z,85.50
2019-03-27T20:12:54.197Z,85.50
2019-03-27T20:15:22.870Z,85.50
2019-03-27T20:17:51.590Z,85.20
2019-03-27T20:20:20.271Z,84.80
2019-03-27T20:22:48.965Z,84.40
2019-03-27T20:25:17.640Z,84.80
2019-03-27T20:27:46.254Z,85.20
2019-03-27T20:30:20.862Z,85.10
2019-03-27T20:32:49.852Z,85.10
2019-03-27T20:35:18.577Z,84.70
2019-03-27T20:37:47.272Z,85.30
2019-03-27T20:40:15.925Z,85.10
2019-03-27T20:42:44.663Z,85.40
2019-03-27T20:45:13.811Z,85.70
2019-03-27T20:47:42.792Z,85.00
2019-03-27T20:50:11.504Z,84.80
2019-03-27T20:52:40.172Z,84.90
2019-03-27T20:55:08.810Z,85.10
2019-03-27T20:57:37.529Z,84.50
2019-03-27T21:00:06.456Z,84.70
2019-03-27T21:02:34.908Z,84.10
2019-03-27T21:05:04.256Z,84.40
2019-03-27T21:07:33.269Z,84.90
2019-03-27T21:10:01.961Z,85.00
2019-03-27T21:12:30.648Z,85.10
2019-03-27T21:14:59.357Z,85.40
2019-03-27T21:17:28.037Z,85.00
2019-03-27T21:19:56.739Z,85.00
2019-03-27T21:22:25.430Z,85.40
2019-03-27T21:25:07.609Z,85.80
2019-03-27T21:27:24.759Z,85.30
2019-03-27T21:29:53.395Z,85.30
2019-03-27T21:32:22.128Z,85.20
2019-03-27T21:34:50.821Z,85.00
2019-03-27T21:37:19.569Z,85.70
2019-03-27T21:39:48.272Z,85.50
2019-03-27T21:42:16.990Z,85.80
2019-03-27T21:44:45.733Z,85.50
2019-03-27T21:47:14.467Z,85.60
2019-03-27T21:49:43.198Z,86.00
2019-03-27T21:52:11.910Z,85.70
2019-03-27T21:54:40.629Z,85.40
2019-03-27T21:57:09.353Z,85.80
2019-03-27T21:59:38.067Z,84.70
2019-03-27T22:02:07.066Z,85.30
2019-03-27T22:04:34.804Z,85.60
2019-03-27T22:07:03.306Z,85.10
2019-03-27T22:09:32.011Z,84.80
2019-03-27T22:12:00.769Z,85.50
2019-03-27T22:14:29.471Z,85.60
2019-03-27T22:16:58.188Z,85.70
2019-03-27T22:19:26.909Z,85.10
2019-03-27T22:21:55.600Z,85.20
2019-03-27T22:24:24.320Z,85.50
2019-03-27T22:26:53.043Z,85.40
2019-03-27T22:29:21.777Z,85.50
2019-03-27T22:31:50.487Z,85.60
2019-03-27T22:34:19.287Z,85.40
2019-03-27T22:36:47.741Z,85.40
2019-03-27T22:39:16.448Z,85.20
2019-03-27T22:41:45.166Z,85.40
2019-03-27T22:44:13.868Z,85.80
2019-03-27T22:46:42.637Z,85.60
2019-03-27T22:49:11.315Z,85.60
2019-03-27T22:51:40.010Z,85.50
2019-03-27T22:54:08.736Z,85.20
2019-03-27T22:56:37.441Z,85.60
2019-03-27T22:59:06.167Z,85.60
2019-03-27T23:01:40.635Z,85.60
2019-03-27T23:04:09.647Z,85.50
2019-03-27T23:06:38.368Z,86.00
2019-03-27T23:09:07.085Z,85.70
2019-03-27T23:11:35.811Z,85.80
2019-03-27T23:14:04.515Z,85.50
2019-03-27T23:16:33.253Z,85.80
2019-03-27T23:19:01.970Z,85.90
2019-03-27T23:21:30.787Z,85.80
2019-03-27T23:23:59.492Z,85.70
2019-03-27T23:26:28.229Z,85.60
2019-03-27T23:28:56.933Z,85.40
2019-03-27T23:31:25.647Z,85.40
2019-03-27T23:33:54.359Z,84.30
2019-03-27T23:36:23.072Z,84.40
2019-03-27T23:38:51.813Z,84.50
2019-03-27T23:41:20.514Z,84.10
2019-03-27T23:43:49.261Z,84.50
2019-03-27T23:46:17.950Z,84.30
2019-03-27T23:48:46.670Z,84.90
2019-03-27T23:51:17.516Z,85.30
2019-03-27T23:53:46.221Z,85.00
2019-03-27T23:56:16.983Z,85.20
2019-03-27T23:58:45.577Z,85.10
